Terminal Aerodrome Forecast
Issued by NWS Charleston, WV

Current Version | Previous Version | Graphics & Text | Print | Product List | Glossary On
Versions: 1 2 3 4 5 6 7 8 9 10 11 12 13 14 15 16 17 18 19 20
000
FTUS41 KRLX 282335
TAFPKB
TAF
KPKB 282335Z 2900/2924 31005KT P6SM FEW050
     FM290500 00000KT P6SM FEW150
     FM290600 00000KT 5SM BR FEW200
     FM290800 00000KT 1SM BR FEW200
     FM291100 VRB03KT 3SM BR SCT150
     FM291200 18005KT P6SM BKN110=

USA.gov is the U.S. government's official web portal to all federal, state and local government web resources and services.